Time;durP1;ratioP1;P1;durP2;ratioP2;P2;SDS_P1;SDS_P2;PMS_P1;PMS_P2;Temp;Humidity;BMP_temperature;BMP_pressure;BME280_temperature;BME280_humidity;BME280_pressure;Samples;Min_cycle;Max_cycle;Signal;HPM_P1;HPM_P2
2021/06/05 00:00:22;;;;;;;;;;;;;;;16.56;100.00;96338.66;1042723;28;19984;-47
2021/06/05 00:00:53;;;;;;;;;;;;;;;16.56;100.00;96336.78;1041274;28;20000;-46
2021/06/05 00:01:28;;;;;;;;;;;;;;;16.58;100.00;96337.41;1041162;28;19909;-47
2021/06/05 00:01:59;;;;;;;;;;;;;;;16.58;100.00;96339.22;1041146;28;19901;-47
2021/06/05 00:02:29;;;;;;;;;;;;;;;16.60;100.00;96339.81;1040883;28;19901;-47
2021/06/05 00:03:00;;;;;;;;;;;;;;;16.61;100.00;96342.25;1041100;28;20341;-47
2021/06/05 00:03:30;;;;;;;;;;;;;;;16.62;100.00;96341.19;1041118;28;20316;-50
2021/06/05 00:04:01;;;;;;;;;;;;;;;16.63;100.00;96340.16;1041087;28;19905;-49
2021/06/05 00:04:31;;;;;;;;;;;;;;;16.62;100.00;96341.19;1041097;28;19924;-46
2021/06/05 00:05:03;;;;;;;;;;;;;;;16.60;100.00;96337.16;1040993;28;19905;-49
2021/06/05 00:05:53;;;;;;;;;;;;;;;16.62;100.00;96343.06;1040416;28;19937;-49
2021/06/05 00:06:24;;;;;;;;;;;;;;;16.65;100.00;96347.91;1042749;28;20342;-47
2021/06/05 00:06:54;;;;;;;;;;;;;;;16.65;100.00;96339.94;1043120;28;19920;-48
2021/06/05 00:07:25;;;;;;;;;;;;;;;16.63;100.00;96347.34;1042052;28;20375;-49
2021/06/05 00:07:55;;;;;;;;;;;;;;;16.63;100.00;96345.47;1041375;28;19909;-48
2021/06/05 00:08:26;;;;;;;;;;;;;;;16.64;100.00;96349.78;1042696;28;19901;-47
2021/06/05 00:08:57;;;;;;;;;;;;;;;16.63;100.00;96348.13;1041067;28;20272;-48
2021/06/05 00:09:27;;;;;;;;;;;;;;;16.59;100.00;96349.63;1043003;28;19901;-45
2021/06/05 00:09:57;;;;;;;;;;;;;;;16.59;100.00;96354.94;1042402;28;19988;-47
2021/06/05 00:10:30;;;;;;;;;;;;;;;16.59;100.00;96349.63;1043324;28;20234;-46
2021/06/05 00:11:01;;;;;;;;;;;;;;;16.57;100.00;96351.72;1043096;28;19905;-48
2021/06/05 00:11:31;;;;;;;;;;;;;;;16.50;100.00;96349.16;1044855;28;19901;-47
2021/06/05 00:12:02;;;;;;;;;;;;;;;16.55;100.00;96347.66;1044511;28;20658;-56
2021/06/05 00:12:32;;;;;;;;;;;;;;;16.55;100.00;96355.63;1043565;28;20110;-46
2021/06/05 00:13:03;;;;;;;;;;;;;;;16.53;100.00;96353.19;1040987;28;19902;-47
2021/06/05 00:13:35;;;;;;;;;;;;;;;16.53;100.00;96353.19;1040591;28;19901;-47
2021/06/05 00:14:06;;;;;;;;;;;;;;;16.52;100.00;96351.59;1040678;28;20016;-47
2021/06/05 00:14:36;;;;;;;;;;;;;;;16.51;100.00;96348.09;1040544;28;19915;-47
2021/06/05 00:15:08;;;;;;;;;;;;;;;16.47;100.00;96354.09;1041258;28;19955;-48
2021/06/05 00:15:39;;;;;;;;;;;;;;;16.42;100.00;96349.47;1040935;28;19921;-47
2021/06/05 00:16:10;;;;;;;;;;;;;;;16.39;100.00;96346.47;1045210;28;19912;-45
2021/06/05 00:16:42;;;;;;;;;;;;;;;16.35;100.00;96348.75;1043531;28;19912;-48
2021/06/05 00:17:12;;;;;;;;;;;;;;;16.34;100.00;96347.16;1045187;28;20324;-48
2021/06/05 00:17:43;;;;;;;;;;;;;;;16.34;100.00;96352.47;1043202;28;19909;-48
2021/06/05 00:18:13;;;;;;;;;;;;;;;16.31;100.00;96348.41;1044080;28;19912;-47
2021/06/05 00:18:44;;;;;;;;;;;;;;;16.30;100.00;96351.28;1044395;28;19909;-47
2021/06/05 00:19:14;;;;;;;;;;;;;;;16.27;100.00;96349.06;1042713;28;19920;-47
2021/06/05 00:19:45;;;;;;;;;;;;;;;16.22;100.00;96349.75;1044402;28;20361;-49
2021/06/05 00:20:15;;;;;;;;;;;;;;;16.20;100.00;96356.31;1041769;28;19939;-47
2021/06/05 00:20:46;;;;;;;;;;;;;;;16.21;100.00;96349.97;1042603;28;19907;-46
2021/06/05 00:21:16;;;;;;;;;;;;;;;16.20;100.00;96349.19;1040980;28;19920;-47
2021/06/05 00:21:47;;;;;;;;;;;;;;;16.17;100.00;96353.09;1041148;28;19909;-50
2021/06/05 00:22:17;;;;;;;;;;;;;;;16.16;100.00;96351.44;1044200;28;19962;-47
2021/06/05 00:22:47;;;;;;;;;;;;;;;16.16;100.00;96351.44;1040610;28;20015;-51
2021/06/05 00:23:18;;;;;;;;;;;;;;;16.16;100.00;96354.09;1041958;28;19915;-48
2021/06/05 00:23:49;;;;;;;;;;;;;;;16.16;100.00;96355.97;1040885;28;20361;-47
2021/06/05 00:24:19;;;;;;;;;;;;;;;16.17;100.00;96354.94;1040692;28;19912;-47
2021/06/05 00:24:49;;;;;;;;;;;;;;;16.17;100.00;96355.75;1040358;28;19909;-47
2021/06/05 00:25:20;;;;;;;;;;;;;;;16.17;100.00;96352.28;1040539;28;19920;-47
2021/06/05 00:25:51;;;;;;;;;;;;;;;16.15;100.00;96354.34;1041054;28;20358;-48
2021/06/05 00:26:21;;;;;;;;;;;;;;;16.15;100.00;96351.69;1041510;28;20389;-50
2021/06/05 00:26:53;;;;;;;;;;;;;;;16.15;100.00;96360.47;1044127;28;20398;-47
2021/06/05 00:27:23;;;;;;;;;;;;;;;16.16;100.00;96355.97;1043566;28;19947;-46
2021/06/05 00:27:54;;;;;;;;;;;;;;;16.16;100.00;96351.44;1045132;28;19947;-48
2021/06/05 00:28:24;;;;;;;;;;;;;;;16.16;100.00;96359.41;1042118;28;19905;-47
2021/06/05 00:28:54;;;;;;;;;;;;;;;16.16;100.00;96362.06;1041885;28;19944;-47
2021/06/05 00:29:25;;;;;;;;;;;;;;;16.10;100.00;96355.00;1043358;28;19900;-46
2021/06/05 00:29:55;;;;;;;;;;;;;;;16.11;100.00;96355.81;1043313;28;19905;-47
2021/06/05 00:30:25;;;;;;;;;;;;;;;16.10;100.00;96365.63;1044186;28;19901;-49
2021/06/05 00:30:56;;;;;;;;;;;;;;;16.09;100.00;96358.69;1041325;28;19901;-48
2021/06/05 00:31:26;;;;;;;;;;;;;;;16.12;100.00;96354.78;1041890;28;19901;-47
2021/06/05 00:31:57;;;;;;;;;;;;;;;16.14;100.00;96352.72;1039738;28;20609;-46
2021/06/05 00:32:27;;;;;;;;;;;;;;;16.15;100.00;96354.34;1042139;28;20328;-47
2021/06/05 00:32:57;;;;;;;;;;;;;;;16.15;100.00;96355.16;1041163;28;19901;-47
2021/06/05 00:33:28;;;;;;;;;;;;;;;16.15;100.00;96359.66;1042048;28;19943;-48
2021/06/05 00:33:58;;;;;;;;;;;;;;;16.14;100.00;96347.44;1043208;28;20246;-48
2021/06/05 00:34:28;;;;;;;;;;;;;;;16.13;100.00;96349.25;1045321;28;19924;-46
2021/06/05 00:34:59;;;;;;;;;;;;;;;16.15;100.00;96354.34;1045014;28;19911;-48
2021/06/05 00:35:29;;;;;;;;;;;;;;;16.12;100.00;96354.78;1044954;28;20046;-47
2021/06/05 00:36:00;;;;;;;;;;;;;;;16.13;100.00;96357.22;1044760;28;19905;-47
2021/06/05 00:36:30;;;;;;;;;;;;;;;16.12;100.00;96352.13;1041509;28;19905;-48
2021/06/05 00:37:00;;;;;;;;;;;;;;;16.13;100.00;96351.09;1040872;28;19924;-47
2021/06/05 00:37:31;;;;;;;;;;;;;;;16.12;100.00;96352.97;1044029;28;19912;-47
2021/06/05 00:38:01;;;;;;;;;;;;;;;16.11;100.00;96353.97;1043623;28;20023;-47
2021/06/05 00:38:31;;;;;;;;;;;;;;;16.11;100.00;96359.28;1044929;28;19905;-47
2021/06/05 00:39:02;;;;;;;;;;;;;;;16.10;100.00;96354.22;1044516;28;20350;-46
2021/06/05 00:39:33;;;;;;;;;;;;;;;16.11;100.00;96355.81;1044873;28;20261;-47
2021/06/05 00:40:05;;;;;;;;;;;;;;;16.08;100.00;96354.44;1042969;28;19909;-46
2021/06/05 00:40:38;;;;;;;;;;;;;;;16.09;100.00;96353.38;1042307;28;19936;-45
2021/06/05 00:41:08;;;;;;;;;;;;;;;16.10;100.00;96349.69;1041855;28;19905;-48
2021/06/05 00:41:39;;;;;;;;;;;;;;;16.11;100.00;96348.69;1041954;28;20380;-47
2021/06/05 00:42:09;;;;;;;;;;;;;;;16.07;100.00;96346.69;1042063;28;20004;-47
2021/06/05 00:42:39;;;;;;;;;;;;;;;16.07;100.00;96350.16;1042823;28;19917;-48
2021/06/05 00:43:10;;;;;;;;;;;;;;;16.05;100.00;96348.75;1040525;28;19909;-49
2021/06/05 00:43:41;;;;;;;;;;;;;;;16.03;100.00;96356.13;1042132;28;19916;-46
2021/06/05 00:44:12;;;;;;;;;;;;;;;16.05;100.00;96359.38;1040186;28;19927;-49
2021/06/05 00:44:42;;;;;;;;;;;;;;;16.03;100.00;96353.47;1042882;28;20340;-48
2021/06/05 00:45:13;;;;;;;;;;;;;;;16.03;100.00;96356.13;1041046;28;19905;-51
2021/06/05 00:45:44;;;;;;;;;;;;;;;16.00;100.00;96357.38;1044734;28;19904;-48
2021/06/05 00:46:15;;;;;;;;;;;;;;;16.00;100.00;96360.03;1041438;28;19917;-47
2021/06/05 00:46:46;;;;;;;;;;;;;;;15.98;100.00;96359.47;1043606;28;19970;-47
2021/06/05 00:47:16;;;;;;;;;;;;;;;15.96;100.00;96364.19;1040327;28;19924;-49
2021/06/05 00:47:47;;;;;;;;;;;;;;;15.95;100.00;96357.25;1039335;28;19917;-47
2021/06/05 00:48:17;;;;;;;;;;;;;;;15.90;100.00;96355.25;1043149;28;19905;-48
2021/06/05 00:48:48;;;;;;;;;;;;;;;15.90;100.00;96349.97;1041473;28;20377;-48
2021/06/05 00:49:18;;;;;;;;;;;;;;;15.89;100.00;96356.28;1041262;28;19905;-48
2021/06/05 00:49:49;;;;;;;;;;;;;;;15.87;100.00;96354.91;1041290;28;20247;-51
2021/06/05 00:50:20;;;;;;;;;;;;;;;15.86;100.00;96356.75;1040976;28;19948;-47
2021/06/05 00:50:50;;;;;;;;;;;;;;;15.84;100.00;96358.81;1040830;28;19905;-47
2021/06/05 00:51:23;;;;;;;;;;;;;;;15.79;100.00;96353.34;1040601;28;19987;-50
2021/06/05 00:51:53;;;;;;;;;;;;;;;15.80;100.00;96353.16;1043074;28;19904;-48
2021/06/05 00:52:24;;;;;;;;;;;;;;;15.77;100.00;96352.72;1036697;28;19906;-49
2021/06/05 00:52:54;;;;;;;;;;;;;;;15.74;100.00;96351.31;1041622;28;19905;-48
2021/06/05 00:53:26;;;;;;;;;;;;;;;15.75;100.00;96354.81;1036349;28;19913;-46
2021/06/05 00:53:58;;;;;;;;;;;;;;;15.70;100.00;96358.13;1036890;28;20358;-47
2021/06/05 00:54:28;;;;;;;;;;;;;;;15.72;100.00;96358.72;1038157;28;19905;-45
2021/06/05 00:54:59;;;;;;;;;;;;;;;15.71;100.00;96359.72;1040683;28;19967;-47
2021/06/05 00:55:30;;;;;;;;;;;;;;;15.73;100.00;96354.19;1040591;28;19996;-49
2021/06/05 00:56:00;;;;;;;;;;;;;;;15.74;100.00;96353.97;1036788;28;20282;-46
2021/06/05 00:56:31;;;;;;;;;;;;;;;15.75;100.00;96358.25;1036478;28;19939;-47
2021/06/05 00:57:03;;;;;;;;;;;;;;;15.74;100.00;96358.50;1036774;28;19906;-45
2021/06/05 00:57:33;;;;;;;;;;;;;;;15.74;100.00;96353.19;1037911;28;19905;-47
2021/06/05 00:58:04;;;;;;;;;;;;;;;15.76;100.00;96354.59;1044943;28;19905;-49
2021/06/05 00:58:34;;;;;;;;;;;;;;;15.74;100.00;96347.88;1036993;28;19993;-49
2021/06/05 00:59:04;;;;;;;;;;;;;;;15.75;100.00;96349.50;1038049;28;19916;-46
2021/06/05 00:59:35;;;;;;;;;;;;;;;15.76;100.00;96356.41;1040310;28;19905;-47
2021/06/05 01:00:07;;;;;;;;;;;;;;;15.76;100.00;96353.75;1040866;28;20342;-48
2021/06/05 01:00:57;;;;;;;;;;;;;;;15.75;100.00;96352.97;1040973;28;19966;-47
2021/06/05 01:01:28;;;;;;;;;;;;;;;15.78;100.00;96354.41;1040628;28;19913;-46
2021/06/05 01:01:59;;;;;;;;;;;;;;;15.78;100.00;96362.34;1044453;28;19913;-48
2021/06/05 01:02:29;;;;;;;;;;;;;;;15.77;100.00;96358.03;1044034;28;19904;-48
2021/06/05 01:02:59;;;;;;;;;;;;;;;15.73;100.00;96357.69;1044049;28;19905;-48
2021/06/05 01:03:30;;;;;;;;;;;;;;;15.71;100.00;96358.94;1042957;28;20049;-47
2021/06/05 01:04:00;;;;;;;;;;;;;;;15.71;100.00;96359.72;1043459;28;19995;-48
2021/06/05 01:04:30;;;;;;;;;;;;;;;15.72;100.00;96356.06;1032333;28;20000;-47
2021/06/05 01:05:01;;;;;;;;;;;;;;;15.74;100.00;96353.19;1032948;28;19906;-47
2021/06/05 01:05:31;;;;;;;;;;;;;;;15.73;100.00;96352.38;1032329;28;19932;-47
2021/06/05 01:06:03;;;;;;;;;;;;;;;15.73;100.00;96356.84;1039267;28;19909;-47
2021/06/05 01:06:46;;;;;;;;;;;;;;;15.75;100.00;96349.50;1040596;28;19920;-48
2021/06/05 01:07:22;;;;;;;;;;;;;;;15.75;100.00;96354.81;1036594;28;19928;-46
2021/06/05 01:07:52;;;;;;;;;;;;;;;15.74;100.00;96351.31;1036634;28;19909;-46
2021/06/05 01:08:24;;;;;;;;;;;;;;;15.74;100.00;96353.19;1032336;28;19909;-48
2021/06/05 01:08:54;;;;;;;;;;;;;;;15.74;100.00;96355.84;1032687;28;20243;-47
2021/06/05 01:09:25;;;;;;;;;;;;;;;15.74;100.00;96353.97;1033250;28;19933;-47
2021/06/05 01:10:00;;;;;;;;;;;;;;;15.76;100.00;96351.94;1040364;28;20012;-47
2021/06/05 01:10:31;;;;;;;;;;;;;;;15.79;100.00;96345.38;1044719;28;19915;-46
2021/06/05 01:11:11;;;;;;;;;;;;;;;15.79;100.00;96340.91;1040395;28;19944;-46
2021/06/05 01:11:44;;;;;;;;;;;;;;;15.79;100.00;96346.22;1039127;28;19909;-46
2021/06/05 01:12:21;;;;;;;;;;;;;;;15.78;100.00;96344.56;1035152;28;20432;-48
2021/06/05 01:13:00;;;;;;;;;;;;;;;15.80;100.00;96350.50;1035045;28;19906;-46
2021/06/05 01:13:33;;;;;;;;;;;;;;;15.82;100.00;96350.28;1030794;28;19906;-47
2021/06/05 01:14:09;;;;;;;;;;;;;;;15.86;100.00;96353.28;1030984;28;19910;-47
2021/06/05 01:14:44;;;;;;;;;;;;;;;15.80;100.00;96355.81;1036732;28;19945;-47
2021/06/05 01:15:17;;;;;;;;;;;;;;;15.79;100.00;96351.50;1034219;28;19910;-46
2021/06/05 01:15:51;;;;;;;;;;;;;;;15.75;100.00;96358.25;1038076;28;19952;-48
2021/06/05 01:16:21;;;;;;;;;;;;;;;15.76;100.00;96361.72;1039387;28;19913;-47
2021/06/05 01:16:52;;;;;;;;;;;;;;;15.79;100.00;96363.97;1033425;28;19932;-48
2021/06/05 01:17:29;;;;;;;;;;;;;;;15.80;100.00;96368.25;1035024;28;19928;-48
2021/06/05 01:18:04;;;;;;;;;;;;;;;15.80;100.00;96376.22;1035699;28;19909;-47
2021/06/05 01:18:39;;;;;;;;;;;;;;;15.78;100.00;96373.78;1029914;28;19910;-48
2021/06/05 01:19:11;;;;;;;;;;;;;;;15.70;100.00;96382.03;1030408;28;19910;-47
2021/06/05 01:20:01;;;;;;;;;;;;;;;15.64;100.00;96390.88;1031179;28;19917;-48
2021/06/05 01:20:36;;;;;;;;;;;;;;;15.59;100.00;96398.66;1035840;28;19917;-45
2021/06/05 01:21:13;;;;;;;;;;;;;;;15.52;100.00;96398.75;1040081;28;19909;-46
2021/06/05 01:22:00;;;;;;;;;;;;;;;15.45;100.00;96414.69;1043157;28;20392;-47
2021/06/05 01:22:39;;;;;;;;;;;;;;;15.43;100.00;96415.97;1043735;28;19913;-46
2021/06/05 01:23:09;;;;;;;;;;;;;;;15.44;100.00;96401.66;1041971;28;20407;-48
2021/06/05 01:23:58;;;;;;;;;;;;;;;15.44;100.00;96393.69;1042162;28;19928;-47
2021/06/05 01:24:47;;;;;;;;;;;;;;;15.48;100.00;96380.81;1040934;28;19963;-46
2021/06/05 01:25:21;;;;;;;;;;;;;;;15.45;100.00;96382.88;1041019;28;20421;-47
2021/06/05 01:26:09;;;;;;;;;;;;;;;15.48;100.00;96381.63;1041053;28;19967;-46
2021/06/05 01:26:41;;;;;;;;;;;;;;;15.44;100.00;96381.25;1044894;28;19912;-47
2021/06/05 01:27:12;;;;;;;;;;;;;;;15.44;100.00;96380.44;1044599;28;19913;-47
2021/06/05 01:27:43;;;;;;;;;;;;;;;15.48;100.00;96378.97;1044974;28;20332;-48
2021/06/05 01:28:34;;;;;;;;;;;;;;;15.49;100.00;96383.25;1044697;28;19908;-46
2021/06/05 01:29:13;;;;;;;;;;;;;;;15.53;100.00;96384.44;1032125;28;19913;-47
2021/06/05 01:29:44;;;;;;;;;;;;;;;15.53;100.00;96384.44;1032506;28;19916;-46
2021/06/05 01:30:34;;;;;;;;;;;;;;;15.55;100.00;96384.22;1043063;28;20258;-47
2021/06/05 01:31:06;;;;;;;;;;;;;;;15.57;100.00;96377.66;1040653;28;19921;-46
2021/06/05 01:31:38;;;;;;;;;;;;;;;15.59;100.00;96382.75;1036401;28;19984;-47
2021/06/05 01:32:09;;;;;;;;;;;;;;;15.58;100.00;96395.19;1036412;28;20008;-47
2021/06/05 01:32:39;;;;;;;;;;;;;;;15.58;100.00;96397.84;1036888;28;19910;-46
2021/06/05 01:33:09;;;;;;;;;;;;;;;15.58;100.00;96397.06;1040598;28;19909;-47
2021/06/05 01:33:40;;;;;;;;;;;;;;;15.57;100.00;96390.91;1040249;28;20377;-47
2021/06/05 01:34:10;;;;;;;;;;;;;;;15.57;100.00;96393.56;1043876;28;20055;-48
2021/06/05 01:34:59;;;;;;;;;;;;;;;15.56;100.00;96401.75;1044654;28;19905;-47
2021/06/05 01:35:29;;;;;;;;;;;;;;;15.56;100.00;96396.44;1043108;28;20404;-47
2021/06/05 01:35:59;;;;;;;;;;;;;;;15.56;100.00;96397.28;1042208;28;20026;-49
2021/06/05 01:36:30;;;;;;;;;;;;;;;15.56;100.00;96407.06;1036233;28;19906;-47
2021/06/05 01:37:00;;;;;;;;;;;;;;;15.55;100.00;96398.31;1036385;28;20343;-47
2021/06/05 01:37:31;;;;;;;;;;;;;;;15.53;100.00;96397.72;1036197;28;19917;-47
2021/06/05 01:38:05;;;;;;;;;;;;;;;15.52;100.00;96392.63;1036458;28;19913;-48
2021/06/05 01:38:36;;;;;;;;;;;;;;;15.48;100.00;96388.78;1040815;28;19909;-47
2021/06/05 01:39:06;;;;;;;;;;;;;;;15.46;100.00;96386.34;1040719;28;20254;-48
2021/06/05 01:39:37;;;;;;;;;;;;;;;15.43;100.00;96384.94;1039810;28;19949;-50
2021/06/05 01:40:09;;;;;;;;;;;;;;;15.44;100.00;96385.75;1040535;28;19912;-48
2021/06/05 01:40:39;;;;;;;;;;;;;;;15.43;100.00;96384.13;1040606;28;19912;-49
2021/06/05 01:41:09;;;;;;;;;;;;;;;15.43;100.00;96392.09;1041372;28;19951;-49
2021/06/05 01:41:40;;;;;;;;;;;;;;;15.43;100.00;96389.44;1040563;28;19931;-50
2021/06/05 01:42:11;;;;;;;;;;;;;;;15.41;100.00;96386.19;1036577;28;19963;-50
2021/06/05 01:42:42;;;;;;;;;;;;;;;15.39;100.00;96383.75;1037367;28;19906;-48
2021/06/05 01:43:12;;;;;;;;;;;;;;;15.39;100.00;96390.91;1041163;28;19963;-47
2021/06/05 01:43:43;;;;;;;;;;;;;;;15.38;100.00;96392.75;1041625;28;19995;-47
2021/06/05 01:44:14;;;;;;;;;;;;;;;15.38;100.00;96397.22;1043565;28;19911;-50
2021/06/05 01:44:45;;;;;;;;;;;;;;;15.35;100.00;96395.00;1041395;28;19912;-48
2021/06/05 01:45:18;;;;;;;;;;;;;;;15.34;100.00;96394.22;1041753;28;20349;-48
2021/06/05 01:45:49;;;;;;;;;;;;;;;15.35;100.00;96387.06;1041571;28;19905;-48
2021/06/05 01:46:20;;;;;;;;;;;;;;;15.35;100.00;96402.97;1033403;28;19910;-47
2021/06/05 01:46:50;;;;;;;;;;;;;;;15.37;100.00;96392.97;1030543;28;19906;-47
2021/06/05 01:47:21;;;;;;;;;;;;;;;15.36;100.00;96402.75;1027941;28;19996;-46
2021/06/05 01:47:52;;;;;;;;;;;;;;;15.34;100.00;96404.03;1028631;28;20258;-48
2021/06/05 01:48:22;;;;;;;;;;;;;;;15.34;100.00;96404.03;1037622;28;19951;-47
2021/06/05 01:48:53;;;;;;;;;;;;;;;15.28;100.00;96398.53;1042363;28;19905;-48
2021/06/05 01:49:23;;;;;;;;;;;;;;;15.27;100.00;96396.09;1045969;28;19978;-47
2021/06/05 01:49:53;;;;;;;;;;;;;;;15.32;100.00;96406.06;1044974;28;19909;-48
2021/06/05 01:50:25;;;;;;;;;;;;;;;15.34;100.00;96398.72;1043588;28;20362;-49
2021/06/05 01:50:55;;;;;;;;;;;;;;;15.37;100.00;96398.28;1040462;28;19905;-47
2021/06/05 01:51:25;;;;;;;;;;;;;;;15.37;100.00;96396.44;1036744;28;19905;-49
2021/06/05 01:51:58;;;;;;;;;;;;;;;15.37;100.00;96392.97;1034148;28;20007;-47
2021/06/05 01:52:30;;;;;;;;;;;;;;;15.37;100.00;96390.31;1033330;28;19906;-50
2021/06/05 01:53:02;;;;;;;;;;;;;;;15.39;100.00;96389.06;1036567;28;19905;-49
2021/06/05 01:53:33;;;;;;;;;;;;;;;15.38;100.00;96383.97;1032475;28;19921;-49
2021/06/05 01:54:22;;;;;;;;;;;;;;;15.38;100.00;96384.78;1033551;28;20316;-51
2021/06/05 01:54:58;;;;;;;;;;;;;;;15.39;100.00;96382.94;1036017;28;19906;-47
2021/06/05 01:55:30;;;;;;;;;;;;;;;15.36;100.00;96388.69;1030223;28;19906;-48
2021/06/05 01:56:07;;;;;;;;;;;;;;;15.34;100.00;96380.16;1032004;28;19906;-48
2021/06/05 01:56:38;;;;;;;;;;;;;;;15.34;100.00;96382.81;1031522;28;20006;-47
2021/06/05 01:57:11;;;;;;;;;;;;;;;15.34;100.00;96380.16;1032336;28;19918;-49
2021/06/05 01:57:42;;;;;;;;;;;;;;;15.33;100.00;96391.78;1031562;28;20408;-51
2021/06/05 01:58:13;;;;;;;;;;;;;;;15.32;100.00;96383.03;1031604;28;19910;-48
2021/06/05 01:58:44;;;;;;;;;;;;;;;15.32;100.00;96382.19;1035139;28;19927;-46
2021/06/05 01:59:15;;;;;;;;;;;;;;;15.31;100.00;96389.34;1033293;28;20393;-48
2021/06/05 01:59:45;;;;;;;;;;;;;;;15.33;100.00;96391.78;1039430;28;19925;-47
2021/06/05 02:00:20;;;;;;;;;;;;;;;15.35;100.00;96384.41;1033245;28;20043;-46
2021/06/05 02:00:51;;;;;;;;;;;;;;;15.36;100.00;96388.69;1038829;28;19917;-46
2021/06/05 02:01:21;;;;;;;;;;;;;;;15.35;100.00;96385.22;1042656;28;19904;-47
2021/06/05 02:01:52;;;;;;;;;;;;;;;15.37;100.00;96379.72;1045279;28;19940;-48
2021/06/05 02:02:22;;;;;;;;;;;;;;;15.37;100.00;96385.00;1043820;28;19905;-47
2021/06/05 02:02:52;;;;;;;;;;;;;;;15.38;100.00;96386.63;1044594;28;21355;-46
2021/06/05 02:03:23;;;;;;;;;;;;;;;15.39;100.00;96385.59;1045680;28;19905;-48
2021/06/05 02:03:53;;;;;;;;;;;;;;;15.38;100.00;96382.13;1045966;28;20304;-48
2021/06/05 02:04:23;;;;;;;;;;;;;;;15.41;100.00;96378.22;1044624;28;20439;-46
2021/06/05 02:04:54;;;;;;;;;;;;;;;15.43;100.00;96381.47;1041181;28;19913;-47
2021/06/05 02:05:25;;;;;;;;;;;;;;;15.42;100.00;96390.47;1029014;28;19976;-47
2021/06/05 02:05:55;;;;;;;;;;;;;;;15.41;100.00;96386.19;1028917;28;19960;-47
2021/06/05 02:06:27;;;;;;;;;;;;;;;15.41;100.00;96386.19;1029160;28;19910;-46
2021/06/05 02:06:57;;;;;;;;;;;;;;;15.39;100.00;96389.06;1033825;28;19906;-47
2021/06/05 02:07:27;;;;;;;;;;;;;;;15.41;100.00;96386.19;1041273;28;19912;-47
2021/06/05 02:07:58;;;;;;;;;;;;;;;15.40;100.00;96380.06;1040903;28;19906;-46
2021/06/05 02:08:28;;;;;;;;;;;;;;;15.38;100.00;96381.31;1041222;28;19951;-46
2021/06/05 02:09:01;;;;;;;;;;;;;;;15.39;100.00;96382.94;1045418;28;19905;-46
2021/06/05 02:09:32;;;;;;;;;;;;;;;15.35;100.00;96381.75;1045269;28;19931;-46
2021/06/05 02:10:05;;;;;;;;;;;;;;;15.36;100.00;96380.72;1045378;28;19909;-46
2021/06/05 02:10:36;;;;;;;;;;;;;;;15.35;100.00;96379.09;1045317;28;19911;-46
2021/06/05 02:11:08;;;;;;;;;;;;;;;15.33;100.00;96384.63;1045591;28;19922;-46
2021/06/05 02:11:40;;;;;;;;;;;;;;;15.34;100.00;96388.09;1045363;28;19905;-46
2021/06/05 02:12:14;;;;;;;;;;;;;;;15.35;100.00;96389.72;1041746;28;19951;-48
2021/06/05 02:12:44;;;;;;;;;;;;;;;15.34;100.00;96396.06;1041142;28;19959;-50
2021/06/05 02:13:25;;;;;;;;;;;;;;;15.36;100.00;96402.75;1042294;28;19955;-47
2021/06/05 02:14:02;;;;;;;;;;;;;;;15.35;100.00;96397.66;1042587;28;20266;-46
2021/06/05 02:14:40;;;;;;;;;;;;;;;15.37;100.00;96388.47;1037176;28;19927;-48
2021/06/05 02:15:17;;;;;;;;;;;;;;;15.36;100.00;96388.69;1037165;28;19909;-49
2021/06/05 02:15:54;;;;;;;;;;;;;;;15.37;100.00;96380.50;1038441;28;19941;-47
2021/06/05 02:16:26;;;;;;;;;;;;;;;15.35;100.00;96381.75;1044246;28;19913;-46
2021/06/05 02:16:56;;;;;;;;;;;;;;;15.34;100.00;96388.09;1045350;28;20425;-46
2021/06/05 02:17:27;;;;;;;;;;;;;;;15.33;100.00;96381.97;1045656;28;19919;-47
2021/06/05 02:17:57;;;;;;;;;;;;;;;15.32;100.00;96395.44;1045489;28;19909;-48
2021/06/05 02:18:29;;;;;;;;;;;;;;;15.30;100.00;96400.19;1045259;28;19932;-47
2021/06/05 02:19:08;;;;;;;;;;;;;;;15.28;100.00;96393.22;1045433;28;19915;-48
2021/06/05 02:19:39;;;;;;;;;;;;;;;15.32;100.00;96398.09;1045338;28;20345;-48
2021/06/05 02:20:14;;;;;;;;;;;;;;;15.35;100.00;96400.31;1040983;28;19916;-47
2021/06/05 02:20:52;;;;;;;;;;;;;;;15.33;100.00;96397.09;1035107;28;19920;-47
2021/06/05 02:21:22;;;;;;;;;;;;;;;15.34;100.00;96406.69;1034617;28;19909;-46
2021/06/05 02:21:53;;;;;;;;;;;;;;;15.33;100.00;96394.44;1038634;28;19925;-47
2021/06/05 02:22:23;;;;;;;;;;;;;;;15.34;100.00;96401.38;1041348;28;19909;-47
2021/06/05 02:22:54;;;;;;;;;;;;;;;15.36;100.00;96408.06;1041221;28;19909;-49
2021/06/05 02:23:25;;;;;;;;;;;;;;;15.36;100.00;96401.94;1044536;28;19917;-47
2021/06/05 02:24:04;;;;;;;;;;;;;;;15.35;100.00;96408.28;1041803;28;20349;-48
2021/06/05 02:24:35;;;;;;;;;;;;;;;15.37;100.00;96406.25;1038754;28;19913;-45
2021/06/05 02:25:06;;;;;;;;;;;;;;;15.36;100.00;96410.72;1040844;28;19913;-46
2021/06/05 02:25:36;;;;;;;;;;;;;;;15.37;100.00;96407.03;1042463;28;19913;-48
2021/06/05 02:26:07;;;;;;;;;;;;;;;15.37;100.00;96404.38;1041395;28;19909;-48
2021/06/05 02:26:38;;;;;;;;;;;;;;;15.36;100.00;96402.75;1041144;28;19902;-47
2021/06/05 02:27:08;;;;;;;;;;;;;;;15.33;100.00;96410.34;1041292;28;19901;-47
2021/06/05 02:27:39;;;;;;;;;;;;;;;15.33;100.00;96407.69;1035613;28;19906;-47
2021/06/05 02:28:09;;;;;;;;;;;;;;;15.35;100.00;96414.41;1033065;28;19902;-46
2021/06/05 02:28:39;;;;;;;;;;;;;;;15.34;100.00;96414.63;1032932;28;19902;-46
2021/06/05 02:29:10;;;;;;;;;;;;;;;15.34;100.00;96414.63;1028979;28;19906;-46
2021/06/05 02:29:40;;;;;;;;;;;;;;;15.34;100.00;96420.75;1033204;28;20375;-47
2021/06/05 02:30:12;;;;;;;;;;;;;;;15.34;100.00;96415.44;1037361;28;20298;-49
2021/06/05 02:30:42;;;;;;;;;;;;;;;15.34;100.00;96417.28;1036928;28;20259;-45
2021/06/05 02:31:12;;;;;;;;;;;;;;;15.35;100.00;96416.25;1039752;28;19920;-46
2021/06/05 02:31:43;;;;;;;;;;;;;;;15.32;100.00;96420.16;1041234;28;19931;-45
2021/06/05 02:32:14;;;;;;;;;;;;;;;15.32;100.00;96412.19;1041194;28;19901;-46
2021/06/05 02:32:44;;;;;;;;;;;;;;;15.32;100.00;96408.72;1041004;28;19952;-47
2021/06/05 02:33:14;;;;;;;;;;;;;;;15.32;100.00;96417.50;1041084;28;19975;-48
2021/06/05 02:33:45;;;;;;;;;;;;;;;15.32;100.00;96414.84;1041243;28;19905;-48
2021/06/05 02:34:17;;;;;;;;;;;;;;;15.32;100.00;96412.19;1039457;28;19959;-46
2021/06/05 02:34:47;;;;;;;;;;;;;;;15.30;100.00;96408.94;1037239;28;20358;-46
2021/06/05 02:35:19;;;;;;;;;;;;;;;15.30;100.00;96410.78;1037126;28;19910;-48
2021/06/05 02:35:50;;;;;;;;;;;;;;;15.28;100.00;96414.47;1037519;28;19909;-47
2021/06/05 02:36:21;;;;;;;;;;;;;;;15.26;100.00;96411.22;1041537;28;20381;-47
2021/06/05 02:36:51;;;;;;;;;;;;;;;15.25;100.00;96416.75;1045270;28;20311;-46
2021/06/05 02:37:23;;;;;;;;;;;;;;;15.23;100.00;96416.97;1041306;28;20381;-48
2021/06/05 02:37:53;;;;;;;;;;;;;;;15.24;100.00;96418.59;1040860;28;19908;-47
2021/06/05 02:38:24;;;;;;;;;;;;;;;15.23;100.00;96424.13;1041325;28;20350;-47
2021/06/05 02:38:54;;;;;;;;;;;;;;;15.22;100.00;96419.84;1041422;28;19976;-48
2021/06/05 02:39:25;;;;;;;;;;;;;;;15.21;100.00;96420.84;1041197;28;20350;-46
2021/06/05 02:39:58;;;;;;;;;;;;;;;15.19;100.00;96418.41;1041081;28;19916;-48
2021/06/05 02:40:29;;;;;;;;;;;;;;;15.18;100.00;96423.94;1041166;28;20361;-47
2021/06/05 02:41:00;;;;;;;;;;;;;;;15.14;100.00;96420.91;1039961;28;20366;-46
2021/06/05 02:41:30;;;;;;;;;;;;;;;15.13;100.00;96419.28;1037595;28;19909;-47
2021/06/05 02:42:00;;;;;;;;;;;;;;;15.15;100.00;96419.06;1036840;28;19925;-47
2021/06/05 02:42:30;;;;;;;;;;;;;;;15.16;100.00;96418.84;1036856;28;19910;-47
2021/06/05 02:43:02;;;;;;;;;;;;;;;15.17;100.00;96417.84;1042960;28;19916;-47
2021/06/05 02:43:32;;;;;;;;;;;;;;;15.15;100.00;96419.88;1041238;28;20357;-45
2021/06/05 02:44:03;;;;;;;;;;;;;;;15.12;100.00;96412.34;1045058;28;19917;-53
2021/06/05 02:44:33;;;;;;;;;;;;;;;15.13;100.00;96415.81;1044847;28;20264;-47